<?xml version="1.0" encoding="UTF-8" standalone="no" ?>
<gpx xmlns="http://www.topografix.com/GPX/1/1" xmlns:xsi="http://www.w3.org/2001/XMLSchema-instance" xsi:schemaLocation="http://www.topografix.com/GPX/1/1 http://www.topografix.com/GPX/1/1/gpx.xsd" version="1.1" creator="VisuGPX - https://www.visugpx.com">
  <metadata>
    <name>ballade 4h</name>
    <desc><![CDATA[ballade autour mont tournier]]></desc>
  </metadata>
  <trk>
    <name><![CDATA[Parcours 2013-03-07 13:51]]></name>
    <trkseg>
      <trkpt lat="45.62403" lon="5.72422">
        <ele>734.5</ele>
        <time>2013-03-07T12:52:16Z</time>
      </trkpt>
      <trkpt lat="45.62945" lon="5.7251">
        <ele>650.8</ele>
        <time>2013-03-07T12:52:50Z</time>
      </trkpt>
      <trkpt lat="45.62993" lon="5.72506">
        <ele>647</ele>
        <time>2013-03-07T12:53:20Z</time>
      </trkpt>
      <trkpt lat="45.63026" lon="5.72489">
        <ele>702</ele>
        <time>2013-03-07T12:53:48Z</time>
      </trkpt>
      <trkpt lat="45.63059" lon="5.72428">
        <ele>699.40002441406</ele>
        <time>2013-03-07T12:54:23Z</time>
      </trkpt>
      <trkpt lat="45.63073" lon="5.72428">
        <ele>724.19995117188</ele>
        <time>2013-03-07T12:55:17Z</time>
      </trkpt>
      <trkpt lat="45.63055" lon="5.7242">
        <ele>711.09997558594</ele>
        <time>2013-03-07T12:55:51Z</time>
      </trkpt>
      <trkpt lat="45.63081" lon="5.72427">
        <ele>699.5</ele>
        <time>2013-03-07T12:56:26Z</time>
      </trkpt>
      <trkpt lat="45.6312" lon="5.72429">
        <ele>696.69995117188</ele>
        <time>2013-03-07T12:56:51Z</time>
      </trkpt>
      <trkpt lat="45.63171" lon="5.72437">
        <ele>688.80004882812</ele>
        <time>2013-03-07T12:57:25Z</time>
      </trkpt>
      <trkpt lat="45.63218" lon="5.72432">
        <ele>685.09997558594</ele>
        <time>2013-03-07T12:57:57Z</time>
      </trkpt>
      <trkpt lat="45.6327" lon="5.72416">
        <ele>686</ele>
        <time>2013-03-07T12:58:31Z</time>
      </trkpt>
      <trkpt lat="45.63326" lon="5.72423">
        <ele>678.69995117188</ele>
        <time>2013-03-07T12:59:05Z</time>
      </trkpt>
      <trkpt lat="45.63366" lon="5.72429">
        <ele>677.90002441406</ele>
        <time>2013-03-07T12:59:28Z</time>
      </trkpt>
      <trkpt lat="45.63409" lon="5.72438">
        <ele>679.90002441406</ele>
        <time>2013-03-07T12:59:55Z</time>
      </trkpt>
      <trkpt lat="45.63445" lon="5.72432">
        <ele>676.69995117188</ele>
        <time>2013-03-07T13:00:18Z</time>
      </trkpt>
      <trkpt lat="45.635" lon="5.72443">
        <ele>681.09997558594</ele>
        <time>2013-03-07T13:00:52Z</time>
      </trkpt>
      <trkpt lat="45.63545" lon="5.72454">
        <ele>674.80004882812</ele>
        <time>2013-03-07T13:01:22Z</time>
      </trkpt>
      <trkpt lat="45.63585" lon="5.72442">
        <ele>671</ele>
        <time>2013-03-07T13:01:48Z</time>
      </trkpt>
      <trkpt lat="45.63625" lon="5.72445">
        <ele>674.40002441406</ele>
        <time>2013-03-07T13:02:11Z</time>
      </trkpt>
      <trkpt lat="45.63665" lon="5.72445">
        <ele>676.90002441406</ele>
        <time>2013-03-07T13:02:34Z</time>
      </trkpt>
      <trkpt lat="45.63706" lon="5.72442">
        <ele>684.40002441406</ele>
        <time>2013-03-07T13:02:58Z</time>
      </trkpt>
      <trkpt lat="45.6374" lon="5.72451">
        <ele>681.40002441406</ele>
        <time>2013-03-07T13:03:22Z</time>
      </trkpt>
      <trkpt lat="45.63776" lon="5.72451">
        <ele>686.19995117188</ele>
        <time>2013-03-07T13:03:46Z</time>
      </trkpt>
      <trkpt lat="45.63809" lon="5.72459">
        <ele>683.19995117188</ele>
        <time>2013-03-07T13:04:09Z</time>
      </trkpt>
      <trkpt lat="45.63841" lon="5.72461">
        <ele>686.59997558594</ele>
        <time>2013-03-07T13:04:31Z</time>
      </trkpt>
      <trkpt lat="45.63878" lon="5.72457">
        <ele>693.90002441406</ele>
        <time>2013-03-07T13:04:54Z</time>
      </trkpt>
      <trkpt lat="45.6391" lon="5.72464">
        <ele>692.30004882812</ele>
        <time>2013-03-07T13:05:17Z</time>
      </trkpt>
      <trkpt lat="45.63947" lon="5.72476">
        <ele>689.5</ele>
        <time>2013-03-07T13:05:43Z</time>
      </trkpt>
      <trkpt lat="45.6398" lon="5.72489">
        <ele>690</ele>
        <time>2013-03-07T13:06:05Z</time>
      </trkpt>
      <trkpt lat="45.64024" lon="5.72496">
        <ele>685.69995117188</ele>
        <time>2013-03-07T13:06:34Z</time>
      </trkpt>
      <trkpt lat="45.64062" lon="5.72516">
        <ele>674.80004882812</ele>
        <time>2013-03-07T13:07:01Z</time>
      </trkpt>
      <trkpt lat="45.64094" lon="5.72544">
        <ele>675.5</ele>
        <time>2013-03-07T13:07:23Z</time>
      </trkpt>
      <trkpt lat="45.64124" lon="5.72569">
        <ele>673.30004882812</ele>
        <time>2013-03-07T13:07:46Z</time>
      </trkpt>
      <trkpt lat="45.64157" lon="5.72572">
        <ele>676.5</ele>
        <time>2013-03-07T13:08:08Z</time>
      </trkpt>
      <trkpt lat="45.64193" lon="5.72575">
        <ele>672.59997558594</ele>
        <time>2013-03-07T13:08:31Z</time>
      </trkpt>
      <trkpt lat="45.64236" lon="5.72576">
        <ele>677.30004882812</ele>
        <time>2013-03-07T13:08:56Z</time>
      </trkpt>
      <trkpt lat="45.64271" lon="5.72568">
        <ele>676.80004882812</ele>
        <time>2013-03-07T13:09:19Z</time>
      </trkpt>
      <trkpt lat="45.6431" lon="5.72558">
        <ele>674</ele>
        <time>2013-03-07T13:09:42Z</time>
      </trkpt>
      <trkpt lat="45.64343" lon="5.72551">
        <ele>683.19995117188</ele>
        <time>2013-03-07T13:10:04Z</time>
      </trkpt>
      <trkpt lat="45.64373" lon="5.72542">
        <ele>687.30004882812</ele>
        <time>2013-03-07T13:10:26Z</time>
      </trkpt>
      <trkpt lat="45.64423" lon="5.7254">
        <ele>687.19995117188</ele>
        <time>2013-03-07T13:10:56Z</time>
      </trkpt>
      <trkpt lat="45.6446" lon="5.72534">
        <ele>688.59997558594</ele>
        <time>2013-03-07T13:11:22Z</time>
      </trkpt>
      <trkpt lat="45.64486" lon="5.72526">
        <ele>691.80004882812</ele>
        <time>2013-03-07T13:11:45Z</time>
      </trkpt>
      <trkpt lat="45.64528" lon="5.72509">
        <ele>704.59997558594</ele>
        <time>2013-03-07T13:12:11Z</time>
      </trkpt>
      <trkpt lat="45.64558" lon="5.72496">
        <ele>704.30004882812</ele>
        <time>2013-03-07T13:12:35Z</time>
      </trkpt>
      <trkpt lat="45.64538" lon="5.72501">
        <ele>703.69995117188</ele>
        <time>2013-03-07T13:12:57Z</time>
      </trkpt>
      <trkpt lat="45.64519" lon="5.72508">
        <ele>701.30004882812</ele>
        <time>2013-03-07T13:13:44Z</time>
      </trkpt>
      <trkpt lat="45.64527" lon="5.72499">
        <ele>704.40002441406</ele>
        <time>2013-03-07T13:14:06Z</time>
      </trkpt>
      <trkpt lat="45.64528" lon="5.72515">
        <ele>718.59997558594</ele>
        <time>2013-03-07T13:15:19Z</time>
      </trkpt>
      <trkpt lat="45.64515" lon="5.7251">
        <ele>692.40002441406</ele>
        <time>2013-03-07T13:16:04Z</time>
      </trkpt>
      <trkpt lat="45.64524" lon="5.72499">
        <ele>698.19995117188</ele>
        <time>2013-03-07T13:16:35Z</time>
      </trkpt>
      <trkpt lat="45.64551" lon="5.72491">
        <ele>704.69995117188</ele>
        <time>2013-03-07T13:17:58Z</time>
      </trkpt>
      <trkpt lat="45.64594" lon="5.7248">
        <ele>701.59997558594</ele>
        <time>2013-03-07T13:18:31Z</time>
      </trkpt>
      <trkpt lat="45.64592" lon="5.72437">
        <ele>689</ele>
        <time>2013-03-07T13:19:05Z</time>
      </trkpt>
      <trkpt lat="45.64603" lon="5.7237">
        <ele>701.69995117188</ele>
        <time>2013-03-07T13:19:39Z</time>
      </trkpt>
      <trkpt lat="45.64636" lon="5.72346">
        <ele>700.69995117188</ele>
        <time>2013-03-07T13:20:13Z</time>
      </trkpt>
      <trkpt lat="45.64658" lon="5.72312">
        <ele>717.09997558594</ele>
        <time>2013-03-07T13:20:45Z</time>
      </trkpt>
      <trkpt lat="45.64679" lon="5.72304">
        <ele>707.09997558594</ele>
        <time>2013-03-07T13:21:18Z</time>
      </trkpt>
      <trkpt lat="45.64676" lon="5.72281">
        <ele>741</ele>
        <time>2013-03-07T13:23:11Z</time>
      </trkpt>
      <trkpt lat="45.64697" lon="5.72278">
        <ele>725.90002441406</ele>
        <time>2013-03-07T13:24:06Z</time>
      </trkpt>
      <trkpt lat="45.64739" lon="5.72264">
        <ele>718.5</ele>
        <time>2013-03-07T13:24:40Z</time>
      </trkpt>
      <trkpt lat="45.64791" lon="5.72263">
        <ele>726.59997558594</ele>
        <time>2013-03-07T13:25:15Z</time>
      </trkpt>
      <trkpt lat="45.64819" lon="5.7224">
        <ele>735.90002441406</ele>
        <time>2013-03-07T13:25:38Z</time>
      </trkpt>
      <trkpt lat="45.64854" lon="5.72214">
        <ele>726</ele>
        <time>2013-03-07T13:26:12Z</time>
      </trkpt>
      <trkpt lat="45.64888" lon="5.722">
        <ele>735.40002441406</ele>
        <time>2013-03-07T13:26:35Z</time>
      </trkpt>
      <trkpt lat="45.64925" lon="5.72211">
        <ele>730.19995117188</ele>
        <time>2013-03-07T13:26:57Z</time>
      </trkpt>
      <trkpt lat="45.64954" lon="5.72208">
        <ele>737.59997558594</ele>
        <time>2013-03-07T13:27:20Z</time>
      </trkpt>
      <trkpt lat="45.64995" lon="5.72214">
        <ele>732</ele>
        <time>2013-03-07T13:27:51Z</time>
      </trkpt>
      <trkpt lat="45.65034" lon="5.722">
        <ele>738.5</ele>
        <time>2013-03-07T13:28:25Z</time>
      </trkpt>
      <trkpt lat="45.65059" lon="5.72197">
        <ele>735.90002441406</ele>
        <time>2013-03-07T13:28:56Z</time>
      </trkpt>
      <trkpt lat="45.65104" lon="5.72186">
        <ele>733.69995117188</ele>
        <time>2013-03-07T13:29:30Z</time>
      </trkpt>
      <trkpt lat="45.65149" lon="5.72173">
        <ele>732.09997558594</ele>
        <time>2013-03-07T13:30:04Z</time>
      </trkpt>
      <trkpt lat="45.65196" lon="5.72159">
        <ele>735.90002441406</ele>
        <time>2013-03-07T13:30:39Z</time>
      </trkpt>
      <trkpt lat="45.65248" lon="5.72179">
        <ele>724.90002441406</ele>
        <time>2013-03-07T13:31:13Z</time>
      </trkpt>
      <trkpt lat="45.65278" lon="5.72211">
        <ele>718.59997558594</ele>
        <time>2013-03-07T13:31:39Z</time>
      </trkpt>
      <trkpt lat="45.65274" lon="5.72247">
        <ele>710.69995117188</ele>
        <time>2013-03-07T13:32:01Z</time>
      </trkpt>
      <trkpt lat="45.65282" lon="5.72301">
        <ele>707.40002441406</ele>
        <time>2013-03-07T13:32:27Z</time>
      </trkpt>
      <trkpt lat="45.6528" lon="5.7235">
        <ele>708.30004882812</ele>
        <time>2013-03-07T13:32:54Z</time>
      </trkpt>
      <trkpt lat="45.65298" lon="5.72385">
        <ele>698.40002441406</ele>
        <time>2013-03-07T13:33:17Z</time>
      </trkpt>
      <trkpt lat="45.65305" lon="5.72451">
        <ele>691.30004882812</ele>
        <time>2013-03-07T13:33:46Z</time>
      </trkpt>
      <trkpt lat="45.65321" lon="5.72506">
        <ele>687.59997558594</ele>
        <time>2013-03-07T13:34:14Z</time>
      </trkpt>
      <trkpt lat="45.65345" lon="5.72541">
        <ele>676.40002441406</ele>
        <time>2013-03-07T13:34:37Z</time>
      </trkpt>
      <trkpt lat="45.65382" lon="5.72582">
        <ele>679.5</ele>
        <time>2013-03-07T13:35:06Z</time>
      </trkpt>
      <trkpt lat="45.6541" lon="5.72555">
        <ele>681.90002441406</ele>
        <time>2013-03-07T13:35:36Z</time>
      </trkpt>
      <trkpt lat="45.65443" lon="5.72532">
        <ele>674.19995117188</ele>
        <time>2013-03-07T13:36:06Z</time>
      </trkpt>
      <trkpt lat="45.65433" lon="5.72474">
        <ele>673.09997558594</ele>
        <time>2013-03-07T13:36:37Z</time>
      </trkpt>
      <trkpt lat="45.6545" lon="5.72435">
        <ele>670</ele>
        <time>2013-03-07T13:37:04Z</time>
      </trkpt>
      <trkpt lat="45.6547" lon="5.72427">
        <ele>665</ele>
        <time>2013-03-07T13:37:28Z</time>
      </trkpt>
      <trkpt lat="45.65453" lon="5.72422">
        <ele>679.5</ele>
        <time>2013-03-07T13:38:36Z</time>
      </trkpt>
      <trkpt lat="45.65468" lon="5.72423">
        <ele>671</ele>
        <time>2013-03-07T13:39:10Z</time>
      </trkpt>
      <trkpt lat="45.65475" lon="5.72436">
        <ele>664.19995117188</ele>
        <time>2013-03-07T13:40:08Z</time>
      </trkpt>
      <trkpt lat="45.65486" lon="5.72412">
        <ele>670.5</ele>
        <time>2013-03-07T13:42:23Z</time>
      </trkpt>
      <trkpt lat="45.65541" lon="5.72427">
        <ele>670.09997558594</ele>
        <time>2013-03-07T13:42:57Z</time>
      </trkpt>
      <trkpt lat="45.65585" lon="5.72421">
        <ele>664</ele>
        <time>2013-03-07T13:43:31Z</time>
      </trkpt>
      <trkpt lat="45.65628" lon="5.72424">
        <ele>661.30004882812</ele>
        <time>2013-03-07T13:44:05Z</time>
      </trkpt>
      <trkpt lat="45.65678" lon="5.72424">
        <ele>656.19995117188</ele>
        <time>2013-03-07T13:44:39Z</time>
      </trkpt>
      <trkpt lat="45.65719" lon="5.72434">
        <ele>658.30004882812</ele>
        <time>2013-03-07T13:45:07Z</time>
      </trkpt>
      <trkpt lat="45.65743" lon="5.72442">
        <ele>653.40002441406</ele>
        <time>2013-03-07T13:45:41Z</time>
      </trkpt>
      <trkpt lat="45.65767" lon="5.72448">
        <ele>652.09997558594</ele>
        <time>2013-03-07T13:46:15Z</time>
      </trkpt>
      <trkpt lat="45.65806" lon="5.72457">
        <ele>644.30004882812</ele>
        <time>2013-03-07T13:46:43Z</time>
      </trkpt>
      <trkpt lat="45.65835" lon="5.72473">
        <ele>639.59997558594</ele>
        <time>2013-03-07T13:47:05Z</time>
      </trkpt>
      <trkpt lat="45.65867" lon="5.72478">
        <ele>637.40002441406</ele>
        <time>2013-03-07T13:47:34Z</time>
      </trkpt>
      <trkpt lat="45.65892" lon="5.72485">
        <ele>634.69995117188</ele>
        <time>2013-03-07T13:48:09Z</time>
      </trkpt>
      <trkpt lat="45.6588" lon="5.72495">
        <ele>631.09997558594</ele>
        <time>2013-03-07T13:49:03Z</time>
      </trkpt>
      <trkpt lat="45.65905" lon="5.72499">
        <ele>628.30004882812</ele>
        <time>2013-03-07T13:49:37Z</time>
      </trkpt>
      <trkpt lat="45.65937" lon="5.72524">
        <ele>623.90002441406</ele>
        <time>2013-03-07T13:50:10Z</time>
      </trkpt>
      <trkpt lat="45.65975" lon="5.72565">
        <ele>616.90002441406</ele>
        <time>2013-03-07T13:50:44Z</time>
      </trkpt>
      <trkpt lat="45.66029" lon="5.7257">
        <ele>608.09997558594</ele>
        <time>2013-03-07T13:51:18Z</time>
      </trkpt>
      <trkpt lat="45.66072" lon="5.72592">
        <ele>604.40002441406</ele>
        <time>2013-03-07T13:51:51Z</time>
      </trkpt>
      <trkpt lat="45.66108" lon="5.72622">
        <ele>593.5</ele>
        <time>2013-03-07T13:52:25Z</time>
      </trkpt>
      <trkpt lat="45.66125" lon="5.72651">
        <ele>590.80004882812</ele>
        <time>2013-03-07T13:52:49Z</time>
      </trkpt>
      <trkpt lat="45.66149" lon="5.7267">
        <ele>580.59997558594</ele>
        <time>2013-03-07T13:53:11Z</time>
      </trkpt>
      <trkpt lat="45.66188" lon="5.72702">
        <ele>585</ele>
        <time>2013-03-07T13:53:44Z</time>
      </trkpt>
      <trkpt lat="45.66219" lon="5.72748">
        <ele>576.80004882812</ele>
        <time>2013-03-07T13:54:17Z</time>
      </trkpt>
      <trkpt lat="45.66262" lon="5.72785">
        <ele>572.90002441406</ele>
        <time>2013-03-07T13:54:51Z</time>
      </trkpt>
      <trkpt lat="45.663" lon="5.72804">
        <ele>564.09997558594</ele>
        <time>2013-03-07T13:55:20Z</time>
      </trkpt>
      <trkpt lat="45.66339" lon="5.72827">
        <ele>574.80004882812</ele>
        <time>2013-03-07T13:55:52Z</time>
      </trkpt>
      <trkpt lat="45.66375" lon="5.7286">
        <ele>560.59997558594</ele>
        <time>2013-03-07T13:56:19Z</time>
      </trkpt>
      <trkpt lat="45.66398" lon="5.72886">
        <ele>555.19995117188</ele>
        <time>2013-03-07T13:56:43Z</time>
      </trkpt>
      <trkpt lat="45.66417" lon="5.72927">
        <ele>547</ele>
        <time>2013-03-07T13:57:07Z</time>
      </trkpt>
      <trkpt lat="45.66447" lon="5.72943">
        <ele>544.5</ele>
        <time>2013-03-07T13:57:40Z</time>
      </trkpt>
      <trkpt lat="45.66445" lon="5.72881">
        <ele>540.19995117188</ele>
        <time>2013-03-07T13:58:11Z</time>
      </trkpt>
      <trkpt lat="45.66416" lon="5.72831">
        <ele>543.90002441406</ele>
        <time>2013-03-07T13:58:39Z</time>
      </trkpt>
      <trkpt lat="45.664" lon="5.72791">
        <ele>545</ele>
        <time>2013-03-07T13:59:01Z</time>
      </trkpt>
      <trkpt lat="45.66411" lon="5.72714">
        <ele>556.40002441406</ele>
        <time>2013-03-07T13:59:34Z</time>
      </trkpt>
      <trkpt lat="45.66443" lon="5.7265">
        <ele>550.30004882812</ele>
        <time>2013-03-07T14:00:09Z</time>
      </trkpt>
      <trkpt lat="45.66478" lon="5.72602">
        <ele>550.30004882812</ele>
        <time>2013-03-07T14:00:43Z</time>
      </trkpt>
      <trkpt lat="45.66505" lon="5.72554">
        <ele>564.59997558594</ele>
        <time>2013-03-07T14:01:08Z</time>
      </trkpt>
      <trkpt lat="45.6655" lon="5.72527">
        <ele>572.69995117188</ele>
        <time>2013-03-07T14:01:42Z</time>
      </trkpt>
      <trkpt lat="45.6659" lon="5.72487">
        <ele>565.09997558594</ele>
        <time>2013-03-07T14:02:16Z</time>
      </trkpt>
      <trkpt lat="45.66623" lon="5.72433">
        <ele>571</ele>
        <time>2013-03-07T14:02:50Z</time>
      </trkpt>
      <trkpt lat="45.66635" lon="5.72366">
        <ele>579.80004882812</ele>
        <time>2013-03-07T14:03:24Z</time>
      </trkpt>
      <trkpt lat="45.66612" lon="5.72321">
        <ele>585.19995117188</ele>
        <time>2013-03-07T14:03:58Z</time>
      </trkpt>
      <trkpt lat="45.66584" lon="5.72277">
        <ele>594.09997558594</ele>
        <time>2013-03-07T14:04:26Z</time>
      </trkpt>
      <trkpt lat="45.66589" lon="5.72211">
        <ele>602.09997558594</ele>
        <time>2013-03-07T14:04:59Z</time>
      </trkpt>
      <trkpt lat="45.66588" lon="5.72152">
        <ele>600.19995117188</ele>
        <time>2013-03-07T14:05:24Z</time>
      </trkpt>
      <trkpt lat="45.66597" lon="5.72091">
        <ele>605.5</ele>
        <time>2013-03-07T14:05:58Z</time>
      </trkpt>
      <trkpt lat="45.66634" lon="5.72042">
        <ele>592.59997558594</ele>
        <time>2013-03-07T14:06:32Z</time>
      </trkpt>
      <trkpt lat="45.6666" lon="5.71988">
        <ele>603.69995117188</ele>
        <time>2013-03-07T14:07:07Z</time>
      </trkpt>
      <trkpt lat="45.66684" lon="5.71945">
        <ele>603.5</ele>
        <time>2013-03-07T14:07:41Z</time>
      </trkpt>
      <trkpt lat="45.66677" lon="5.71903">
        <ele>597.80004882812</ele>
        <time>2013-03-07T14:08:09Z</time>
      </trkpt>
      <trkpt lat="45.66679" lon="5.71833">
        <ele>599.69995117188</ele>
        <time>2013-03-07T14:08:43Z</time>
      </trkpt>
      <trkpt lat="45.6666" lon="5.71779">
        <ele>624.09997558594</ele>
        <time>2013-03-07T14:09:17Z</time>
      </trkpt>
      <trkpt lat="45.66662" lon="5.71699">
        <ele>638.19995117188</ele>
        <time>2013-03-07T14:09:51Z</time>
      </trkpt>
      <trkpt lat="45.66647" lon="5.7167">
        <ele>625.19995117188</ele>
        <time>2013-03-07T14:10:26Z</time>
      </trkpt>
      <trkpt lat="45.66622" lon="5.7162">
        <ele>623.5</ele>
        <time>2013-03-07T14:11:01Z</time>
      </trkpt>
      <trkpt lat="45.66525" lon="5.7157">
        <ele>627.69995117188</ele>
        <time>2013-03-07T14:11:35Z</time>
      </trkpt>
      <trkpt lat="45.6644" lon="5.71492">
        <ele>652.09997558594</ele>
        <time>2013-03-07T14:12:09Z</time>
      </trkpt>
      <trkpt lat="45.66378" lon="5.71455">
        <ele>650.40002441406</ele>
        <time>2013-03-07T14:12:44Z</time>
      </trkpt>
      <trkpt lat="45.66325" lon="5.71436">
        <ele>655.59997558594</ele>
        <time>2013-03-07T14:13:18Z</time>
      </trkpt>
      <trkpt lat="45.66211" lon="5.7135">
        <ele>667.59997558594</ele>
        <time>2013-03-07T14:13:52Z</time>
      </trkpt>
      <trkpt lat="45.66163" lon="5.71333">
        <ele>682.90002441406</ele>
        <time>2013-03-07T14:14:26Z</time>
      </trkpt>
      <trkpt lat="45.66102" lon="5.71304">
        <ele>679.90002441406</ele>
        <time>2013-03-07T14:15:00Z</time>
      </trkpt>
      <trkpt lat="45.66018" lon="5.71364">
        <ele>691.30004882812</ele>
        <time>2013-03-07T14:15:33Z</time>
      </trkpt>
      <trkpt lat="45.65995" lon="5.7144">
        <ele>697.5</ele>
        <time>2013-03-07T14:16:07Z</time>
      </trkpt>
      <trkpt lat="45.659" lon="5.71232">
        <ele>700.59997558594</ele>
        <time>2013-03-07T14:16:41Z</time>
      </trkpt>
      <trkpt lat="45.65862" lon="5.71165">
        <ele>707</ele>
        <time>2013-03-07T14:17:15Z</time>
      </trkpt>
      <trkpt lat="45.65856" lon="5.71103">
        <ele>692.09997558594</ele>
        <time>2013-03-07T14:17:49Z</time>
      </trkpt>
      <trkpt lat="45.6584" lon="5.71045">
        <ele>694.69995117188</ele>
        <time>2013-03-07T14:18:23Z</time>
      </trkpt>
      <trkpt lat="45.65821" lon="5.70983">
        <ele>703.90002441406</ele>
        <time>2013-03-07T14:18:58Z</time>
      </trkpt>
      <trkpt lat="45.65789" lon="5.70944">
        <ele>697.09997558594</ele>
        <time>2013-03-07T14:19:32Z</time>
      </trkpt>
      <trkpt lat="45.65747" lon="5.70919">
        <ele>703</ele>
        <time>2013-03-07T14:20:06Z</time>
      </trkpt>
      <trkpt lat="45.65706" lon="5.70875">
        <ele>708</ele>
        <time>2013-03-07T14:20:41Z</time>
      </trkpt>
      <trkpt lat="45.65661" lon="5.70836">
        <ele>721</ele>
        <time>2013-03-07T14:21:15Z</time>
      </trkpt>
      <trkpt lat="45.65621" lon="5.70819">
        <ele>715.69995117188</ele>
        <time>2013-03-07T14:21:49Z</time>
      </trkpt>
      <trkpt lat="45.65576" lon="5.7078">
        <ele>721.19995117188</ele>
        <time>2013-03-07T14:22:24Z</time>
      </trkpt>
      <trkpt lat="45.65536" lon="5.70762">
        <ele>712.69995117188</ele>
        <time>2013-03-07T14:22:59Z</time>
      </trkpt>
      <trkpt lat="45.65484" lon="5.70741">
        <ele>722.19995117188</ele>
        <time>2013-03-07T14:23:33Z</time>
      </trkpt>
      <trkpt lat="45.6544" lon="5.70728">
        <ele>723.40002441406</ele>
        <time>2013-03-07T14:24:07Z</time>
      </trkpt>
      <trkpt lat="45.65384" lon="5.70715">
        <ele>725.80004882812</ele>
        <time>2013-03-07T14:24:41Z</time>
      </trkpt>
      <trkpt lat="45.65348" lon="5.70716">
        <ele>732.59997558594</ele>
        <time>2013-03-07T14:25:16Z</time>
      </trkpt>
      <trkpt lat="45.653" lon="5.70723">
        <ele>735</ele>
        <time>2013-03-07T14:25:50Z</time>
      </trkpt>
      <trkpt lat="45.65252" lon="5.70718">
        <ele>737.40002441406</ele>
        <time>2013-03-07T14:26:24Z</time>
      </trkpt>
      <trkpt lat="45.65209" lon="5.70685">
        <ele>744.69995117188</ele>
        <time>2013-03-07T14:26:58Z</time>
      </trkpt>
      <trkpt lat="45.65156" lon="5.70652">
        <ele>744.69995117188</ele>
        <time>2013-03-07T14:27:38Z</time>
      </trkpt>
      <trkpt lat="45.65113" lon="5.70647">
        <ele>752.59997558594</ele>
        <time>2013-03-07T14:28:12Z</time>
      </trkpt>
      <trkpt lat="45.65076" lon="5.70639">
        <ele>760.40002441406</ele>
        <time>2013-03-07T14:28:46Z</time>
      </trkpt>
      <trkpt lat="45.65023" lon="5.70605">
        <ele>751</ele>
        <time>2013-03-07T14:29:20Z</time>
      </trkpt>
      <trkpt lat="45.64979" lon="5.70592">
        <ele>762.80004882812</ele>
        <time>2013-03-07T14:29:54Z</time>
      </trkpt>
      <trkpt lat="45.64929" lon="5.70568">
        <ele>769.90002441406</ele>
        <time>2013-03-07T14:30:32Z</time>
      </trkpt>
      <trkpt lat="45.64883" lon="5.70551">
        <ele>766.09997558594</ele>
        <time>2013-03-07T14:31:06Z</time>
      </trkpt>
      <trkpt lat="45.64842" lon="5.70522">
        <ele>763.30004882812</ele>
        <time>2013-03-07T14:31:40Z</time>
      </trkpt>
      <trkpt lat="45.64803" lon="5.7054">
        <ele>774.5</ele>
        <time>2013-03-07T14:32:14Z</time>
      </trkpt>
      <trkpt lat="45.64755" lon="5.70522">
        <ele>776.59997558594</ele>
        <time>2013-03-07T14:32:50Z</time>
      </trkpt>
      <trkpt lat="45.64726" lon="5.7051">
        <ele>786.19995117188</ele>
        <time>2013-03-07T14:33:22Z</time>
      </trkpt>
      <trkpt lat="45.64699" lon="5.7048">
        <ele>789.19995117188</ele>
        <time>2013-03-07T14:34:00Z</time>
      </trkpt>
      <trkpt lat="45.6466" lon="5.70467">
        <ele>796.69995117188</ele>
        <time>2013-03-07T14:34:34Z</time>
      </trkpt>
      <trkpt lat="45.64639" lon="5.70474">
        <ele>795.80004882812</ele>
        <time>2013-03-07T14:35:09Z</time>
      </trkpt>
      <trkpt lat="45.64637" lon="5.70495">
        <ele>804.69995117188</ele>
        <time>2013-03-07T14:35:43Z</time>
      </trkpt>
      <trkpt lat="45.64619" lon="5.70501">
        <ele>814.59997558594</ele>
        <time>2013-03-07T14:36:18Z</time>
      </trkpt>
      <trkpt lat="45.64585" lon="5.70509">
        <ele>820.09997558594</ele>
        <time>2013-03-07T14:36:53Z</time>
      </trkpt>
      <trkpt lat="45.64556" lon="5.70517">
        <ele>826.90002441406</ele>
        <time>2013-03-07T14:38:03Z</time>
      </trkpt>
      <trkpt lat="45.64531" lon="5.7053">
        <ele>836.09997558594</ele>
        <time>2013-03-07T14:38:37Z</time>
      </trkpt>
      <trkpt lat="45.64517" lon="5.70547">
        <ele>845.80004882812</ele>
        <time>2013-03-07T14:39:11Z</time>
      </trkpt>
      <trkpt lat="45.64498" lon="5.70578">
        <ele>854.90002441406</ele>
        <time>2013-03-07T14:39:45Z</time>
      </trkpt>
      <trkpt lat="45.64498" lon="5.70544">
        <ele>842.90002441406</ele>
        <time>2013-03-07T14:40:17Z</time>
      </trkpt>
      <trkpt lat="45.64497" lon="5.70592">
        <ele>852.90002441406</ele>
        <time>2013-03-07T14:40:47Z</time>
      </trkpt>
      <trkpt lat="45.64511" lon="5.70618">
        <ele>862</ele>
        <time>2013-03-07T14:41:22Z</time>
      </trkpt>
      <trkpt lat="45.64527" lon="5.70644">
        <ele>852.5</ele>
        <time>2013-03-07T14:42:31Z</time>
      </trkpt>
      <trkpt lat="45.64528" lon="5.70671">
        <ele>872.5</ele>
        <time>2013-03-07T14:43:03Z</time>
      </trkpt>
      <trkpt lat="45.64527" lon="5.70689">
        <ele>882.5</ele>
        <time>2013-03-07T14:43:38Z</time>
      </trkpt>
      <trkpt lat="45.64533" lon="5.70706">
        <ele>880.80004882812</ele>
        <time>2013-03-07T14:45:30Z</time>
      </trkpt>
      <trkpt lat="45.64524" lon="5.70704">
        <ele>889.5</ele>
        <time>2013-03-07T14:45:48Z</time>
      </trkpt>
      <trkpt lat="45.64514" lon="5.70703">
        <ele>885.30004882812</ele>
        <time>2013-03-07T14:46:00Z</time>
      </trkpt>
      <trkpt lat="45.64505" lon="5.70702">
        <ele>880.59997558594</ele>
        <time>2013-03-07T14:46:07Z</time>
      </trkpt>
      <trkpt lat="45.64495" lon="5.70702">
        <ele>878.5</ele>
        <time>2013-03-07T14:46:14Z</time>
      </trkpt>
      <trkpt lat="45.64487" lon="5.70707">
        <ele>879</ele>
        <time>2013-03-07T14:46:21Z</time>
      </trkpt>
      <trkpt lat="45.64479" lon="5.70714">
        <ele>879</ele>
        <time>2013-03-07T14:46:28Z</time>
      </trkpt>
      <trkpt lat="45.6447" lon="5.70718">
        <ele>878.59997558594</ele>
        <time>2013-03-07T14:46:34Z</time>
      </trkpt>
      <trkpt lat="45.64463" lon="5.70726">
        <ele>882</ele>
        <time>2013-03-07T14:46:43Z</time>
      </trkpt>
      <trkpt lat="45.64457" lon="5.70737">
        <ele>885.40002441406</ele>
        <time>2013-03-07T14:46:52Z</time>
      </trkpt>
      <trkpt lat="45.64448" lon="5.7074">
        <ele>885</ele>
        <time>2013-03-07T14:47:02Z</time>
      </trkpt>
      <trkpt lat="45.64439" lon="5.70737">
        <ele>887.90002441406</ele>
        <time>2013-03-07T14:47:12Z</time>
      </trkpt>
      <trkpt lat="45.64431" lon="5.7073">
        <ele>888.30004882812</ele>
        <time>2013-03-07T14:47:22Z</time>
      </trkpt>
      <trkpt lat="45.64427" lon="5.70718">
        <ele>889.5</ele>
        <time>2013-03-07T14:47:31Z</time>
      </trkpt>
      <trkpt lat="45.64418" lon="5.70695">
        <ele>897.19995117188</ele>
        <time>2013-03-07T14:48:05Z</time>
      </trkpt>
      <trkpt lat="45.64403" lon="5.70684">
        <ele>898.90002441406</ele>
        <time>2013-03-07T14:48:33Z</time>
      </trkpt>
      <trkpt lat="45.64388" lon="5.70684">
        <ele>899.5</ele>
        <time>2013-03-07T14:49:07Z</time>
      </trkpt>
      <trkpt lat="45.64349" lon="5.70674">
        <ele>905.69995117188</ele>
        <time>2013-03-07T14:49:42Z</time>
      </trkpt>
      <trkpt lat="45.64314" lon="5.70647">
        <ele>906.5</ele>
        <time>2013-03-07T14:50:16Z</time>
      </trkpt>
      <trkpt lat="45.64281" lon="5.70628">
        <ele>898.90002441406</ele>
        <time>2013-03-07T14:50:51Z</time>
      </trkpt>
      <trkpt lat="45.64277" lon="5.70578">
        <ele>895.40002441406</ele>
        <time>2013-03-07T14:51:50Z</time>
      </trkpt>
      <trkpt lat="45.64265" lon="5.70549">
        <ele>897.80004882812</ele>
        <time>2013-03-07T14:52:14Z</time>
      </trkpt>
      <trkpt lat="45.64249" lon="5.7056">
        <ele>895.09997558594</ele>
        <time>2013-03-07T14:52:49Z</time>
      </trkpt>
      <trkpt lat="45.6424" lon="5.70558">
        <ele>901.09997558594</ele>
        <time>2013-03-07T14:53:56Z</time>
      </trkpt>
      <trkpt lat="45.64235" lon="5.70496">
        <ele>885.30004882812</ele>
        <time>2013-03-07T14:55:00Z</time>
      </trkpt>
      <trkpt lat="45.64227" lon="5.70441">
        <ele>883.59997558594</ele>
        <time>2013-03-07T14:55:34Z</time>
      </trkpt>
      <trkpt lat="45.64226" lon="5.70401">
        <ele>888.59997558594</ele>
        <time>2013-03-07T14:56:02Z</time>
      </trkpt>
      <trkpt lat="45.64216" lon="5.70382">
        <ele>881.19995117188</ele>
        <time>2013-03-07T14:56:32Z</time>
      </trkpt>
      <trkpt lat="45.64197" lon="5.70385">
        <ele>879.19995117188</ele>
        <time>2013-03-07T14:57:07Z</time>
      </trkpt>
      <trkpt lat="45.64177" lon="5.70392">
        <ele>881.59997558594</ele>
        <time>2013-03-07T14:57:41Z</time>
      </trkpt>
      <trkpt lat="45.64137" lon="5.70402">
        <ele>885.30004882812</ele>
        <time>2013-03-07T14:58:15Z</time>
      </trkpt>
      <trkpt lat="45.64099" lon="5.70375">
        <ele>879.30004882812</ele>
        <time>2013-03-07T14:58:48Z</time>
      </trkpt>
      <trkpt lat="45.64077" lon="5.70339">
        <ele>868.59997558594</ele>
        <time>2013-03-07T14:59:18Z</time>
      </trkpt>
      <trkpt lat="45.64033" lon="5.70338">
        <ele>871</ele>
        <time>2013-03-07T14:59:53Z</time>
      </trkpt>
      <trkpt lat="45.64024" lon="5.70292">
        <ele>862.59997558594</ele>
        <time>2013-03-07T15:00:31Z</time>
      </trkpt>
      <trkpt lat="45.64009" lon="5.70277">
        <ele>869.80004882812</ele>
        <time>2013-03-07T15:01:05Z</time>
      </trkpt>
      <trkpt lat="45.63988" lon="5.70255">
        <ele>869.59997558594</ele>
        <time>2013-03-07T15:01:31Z</time>
      </trkpt>
      <trkpt lat="45.64001" lon="5.70264">
        <ele>871.69995117188</ele>
        <time>2013-03-07T15:02:00Z</time>
      </trkpt>
      <trkpt lat="45.64008" lon="5.70251">
        <ele>879.19995117188</ele>
        <time>2013-03-07T15:02:24Z</time>
      </trkpt>
      <trkpt lat="45.64002" lon="5.7027">
        <ele>850.80004882812</ele>
        <time>2013-03-07T15:02:59Z</time>
      </trkpt>
      <trkpt lat="45.63965" lon="5.70303">
        <ele>863.40002441406</ele>
        <time>2013-03-07T15:03:34Z</time>
      </trkpt>
      <trkpt lat="45.63941" lon="5.70326">
        <ele>872.69995117188</ele>
        <time>2013-03-07T15:04:08Z</time>
      </trkpt>
      <trkpt lat="45.63916" lon="5.70372">
        <ele>875.59997558594</ele>
        <time>2013-03-07T15:04:42Z</time>
      </trkpt>
      <trkpt lat="45.63895" lon="5.7041">
        <ele>884.19995117188</ele>
        <time>2013-03-07T15:05:16Z</time>
      </trkpt>
      <trkpt lat="45.63858" lon="5.70457">
        <ele>863.09997558594</ele>
        <time>2013-03-07T15:05:51Z</time>
      </trkpt>
      <trkpt lat="45.63818" lon="5.70472">
        <ele>860.5</ele>
        <time>2013-03-07T15:06:25Z</time>
      </trkpt>
      <trkpt lat="45.6377" lon="5.70491">
        <ele>859.59997558594</ele>
        <time>2013-03-07T15:06:59Z</time>
      </trkpt>
      <trkpt lat="45.63737" lon="5.70521">
        <ele>853.30004882812</ele>
        <time>2013-03-07T15:07:26Z</time>
      </trkpt>
      <trkpt lat="45.63703" lon="5.70516">
        <ele>859.59997558594</ele>
        <time>2013-03-07T15:07:49Z</time>
      </trkpt>
      <trkpt lat="45.63671" lon="5.70522">
        <ele>852.69995117188</ele>
        <time>2013-03-07T15:08:24Z</time>
      </trkpt>
      <trkpt lat="45.63661" lon="5.70522">
        <ele>849.30004882812</ele>
        <time>2013-03-07T15:08:59Z</time>
      </trkpt>
      <trkpt lat="45.63664" lon="5.70537">
        <ele>841.09997558594</ele>
        <time>2013-03-07T15:11:14Z</time>
      </trkpt>
      <trkpt lat="45.63653" lon="5.70537">
        <ele>880.5</ele>
        <time>2013-03-07T15:11:48Z</time>
      </trkpt>
      <trkpt lat="45.63648" lon="5.70515">
        <ele>856.59997558594</ele>
        <time>2013-03-07T15:12:52Z</time>
      </trkpt>
      <trkpt lat="45.63613" lon="5.7051">
        <ele>854.59997558594</ele>
        <time>2013-03-07T15:13:20Z</time>
      </trkpt>
      <trkpt lat="45.6358" lon="5.70479">
        <ele>844.59997558594</ele>
        <time>2013-03-07T15:13:48Z</time>
      </trkpt>
      <trkpt lat="45.63558" lon="5.70438">
        <ele>847.09997558594</ele>
        <time>2013-03-07T15:14:23Z</time>
      </trkpt>
      <trkpt lat="45.63554" lon="5.70459">
        <ele>853.90002441406</ele>
        <time>2013-03-07T15:14:48Z</time>
      </trkpt>
      <trkpt lat="45.63563" lon="5.70408">
        <ele>835.5</ele>
        <time>2013-03-07T15:15:23Z</time>
      </trkpt>
      <trkpt lat="45.63545" lon="5.70366">
        <ele>844.40002441406</ele>
        <time>2013-03-07T15:15:45Z</time>
      </trkpt>
      <trkpt lat="45.6351" lon="5.70311">
        <ele>838.69995117188</ele>
        <time>2013-03-07T15:16:21Z</time>
      </trkpt>
      <trkpt lat="45.63482" lon="5.70267">
        <ele>839.80004882812</ele>
        <time>2013-03-07T15:16:47Z</time>
      </trkpt>
      <trkpt lat="45.63452" lon="5.70258">
        <ele>825.59997558594</ele>
        <time>2013-03-07T15:17:10Z</time>
      </trkpt>
      <trkpt lat="45.63419" lon="5.7027">
        <ele>823.09997558594</ele>
        <time>2013-03-07T15:17:32Z</time>
      </trkpt>
      <trkpt lat="45.63396" lon="5.70286">
        <ele>825.5</ele>
        <time>2013-03-07T15:18:03Z</time>
      </trkpt>
      <trkpt lat="45.63438" lon="5.70265">
        <ele>819</ele>
        <time>2013-03-07T15:18:34Z</time>
      </trkpt>
      <trkpt lat="45.63486" lon="5.70256">
        <ele>840.59997558594</ele>
        <time>2013-03-07T15:19:00Z</time>
      </trkpt>
      <trkpt lat="45.6351" lon="5.70307">
        <ele>837.40002441406</ele>
        <time>2013-03-07T15:19:23Z</time>
      </trkpt>
      <trkpt lat="45.63545" lon="5.70361">
        <ele>841.90002441406</ele>
        <time>2013-03-07T15:19:58Z</time>
      </trkpt>
      <trkpt lat="45.63569" lon="5.70429">
        <ele>843.69995117188</ele>
        <time>2013-03-07T15:20:32Z</time>
      </trkpt>
      <trkpt lat="45.63535" lon="5.70491">
        <ele>869.09997558594</ele>
        <time>2013-03-07T15:21:06Z</time>
      </trkpt>
      <trkpt lat="45.63499" lon="5.70543">
        <ele>872.80004882812</ele>
        <time>2013-03-07T15:21:40Z</time>
      </trkpt>
      <trkpt lat="45.63457" lon="5.70583">
        <ele>874.80004882812</ele>
        <time>2013-03-07T15:22:15Z</time>
      </trkpt>
      <trkpt lat="45.63426" lon="5.70637">
        <ele>857</ele>
        <time>2013-03-07T15:22:47Z</time>
      </trkpt>
      <trkpt lat="45.63372" lon="5.7063">
        <ele>864.59997558594</ele>
        <time>2013-03-07T15:23:22Z</time>
      </trkpt>
      <trkpt lat="45.63352" lon="5.70654">
        <ele>867.09997558594</ele>
        <time>2013-03-07T15:23:44Z</time>
      </trkpt>
      <trkpt lat="45.63339" lon="5.70699">
        <ele>880.80004882812</ele>
        <time>2013-03-07T15:24:09Z</time>
      </trkpt>
      <trkpt lat="45.63313" lon="5.70737">
        <ele>872.59997558594</ele>
        <time>2013-03-07T15:24:33Z</time>
      </trkpt>
      <trkpt lat="45.63308" lon="5.7078">
        <ele>878.5</ele>
        <time>2013-03-07T15:24:55Z</time>
      </trkpt>
      <trkpt lat="45.63299" lon="5.70832">
        <ele>873.59997558594</ele>
        <time>2013-03-07T15:25:30Z</time>
      </trkpt>
      <trkpt lat="45.63341" lon="5.70845">
        <ele>884.09997558594</ele>
        <time>2013-03-07T15:26:01Z</time>
      </trkpt>
      <trkpt lat="45.63375" lon="5.70898">
        <ele>881.69995117188</ele>
        <time>2013-03-07T15:26:24Z</time>
      </trkpt>
      <trkpt lat="45.63382" lon="5.70952">
        <ele>879.30004882812</ele>
        <time>2013-03-07T15:26:51Z</time>
      </trkpt>
      <trkpt lat="45.63348" lon="5.71014">
        <ele>881.69995117188</ele>
        <time>2013-03-07T15:27:26Z</time>
      </trkpt>
      <trkpt lat="45.63312" lon="5.71053">
        <ele>881.90002441406</ele>
        <time>2013-03-07T15:27:50Z</time>
      </trkpt>
      <trkpt lat="45.63276" lon="5.71036">
        <ele>878.80004882812</ele>
        <time>2013-03-07T15:28:17Z</time>
      </trkpt>
      <trkpt lat="45.63229" lon="5.71032">
        <ele>871.80004882812</ele>
        <time>2013-03-07T15:28:51Z</time>
      </trkpt>
      <trkpt lat="45.63146" lon="5.71053">
        <ele>888.30004882812</ele>
        <time>2013-03-07T15:29:20Z</time>
      </trkpt>
      <trkpt lat="45.63122" lon="5.71087">
        <ele>903.19995117188</ele>
        <time>2013-03-07T15:29:44Z</time>
      </trkpt>
      <trkpt lat="45.63119" lon="5.7112">
        <ele>882.40002441406</ele>
        <time>2013-03-07T15:30:09Z</time>
      </trkpt>
      <trkpt lat="45.63097" lon="5.71173">
        <ele>887.30004882812</ele>
        <time>2013-03-07T15:30:35Z</time>
      </trkpt>
      <trkpt lat="45.63024" lon="5.71248">
        <ele>882.09997558594</ele>
        <time>2013-03-07T15:31:09Z</time>
      </trkpt>
      <trkpt lat="45.62939" lon="5.71268">
        <ele>882.5</ele>
        <time>2013-03-07T15:31:43Z</time>
      </trkpt>
      <trkpt lat="45.62795" lon="5.71291">
        <ele>892.59997558594</ele>
        <time>2013-03-07T15:32:17Z</time>
      </trkpt>
      <trkpt lat="45.62735" lon="5.71297">
        <ele>914.69995117188</ele>
        <time>2013-03-07T15:32:45Z</time>
      </trkpt>
      <trkpt lat="45.62674" lon="5.71321">
        <ele>893</ele>
        <time>2013-03-07T15:33:19Z</time>
      </trkpt>
      <trkpt lat="45.62667" lon="5.71363">
        <ele>904</ele>
        <time>2013-03-07T15:33:47Z</time>
      </trkpt>
      <trkpt lat="45.62631" lon="5.71351">
        <ele>893.19995117188</ele>
        <time>2013-03-07T15:34:20Z</time>
      </trkpt>
      <trkpt lat="45.62605" lon="5.71372">
        <ele>886.19995117188</ele>
        <time>2013-03-07T15:34:42Z</time>
      </trkpt>
      <trkpt lat="45.62577" lon="5.71406">
        <ele>892.5</ele>
        <time>2013-03-07T15:35:06Z</time>
      </trkpt>
      <trkpt lat="45.62581" lon="5.71459">
        <ele>888.30004882812</ele>
        <time>2013-03-07T15:35:31Z</time>
      </trkpt>
      <trkpt lat="45.6258" lon="5.71492">
        <ele>878.90002441406</ele>
        <time>2013-03-07T15:35:53Z</time>
      </trkpt>
      <trkpt lat="45.6255" lon="5.71535">
        <ele>863.69995117188</ele>
        <time>2013-03-07T15:36:25Z</time>
      </trkpt>
      <trkpt lat="45.62514" lon="5.71548">
        <ele>866.90002441406</ele>
        <time>2013-03-07T15:36:52Z</time>
      </trkpt>
      <trkpt lat="45.62475" lon="5.71567">
        <ele>855.80004882812</ele>
        <time>2013-03-07T15:37:16Z</time>
      </trkpt>
      <trkpt lat="45.62459" lon="5.71611">
        <ele>856.80004882812</ele>
        <time>2013-03-07T15:37:49Z</time>
      </trkpt>
      <trkpt lat="45.62489" lon="5.71656">
        <ele>857.30004882812</ele>
        <time>2013-03-07T15:38:15Z</time>
      </trkpt>
      <trkpt lat="45.62506" lon="5.71702">
        <ele>850.30004882812</ele>
        <time>2013-03-07T15:38:45Z</time>
      </trkpt>
      <trkpt lat="45.62525" lon="5.71737">
        <ele>841.19995117188</ele>
        <time>2013-03-07T15:39:07Z</time>
      </trkpt>
      <trkpt lat="45.62548" lon="5.71763">
        <ele>832.69995117188</ele>
        <time>2013-03-07T15:39:29Z</time>
      </trkpt>
      <trkpt lat="45.62574" lon="5.7178">
        <ele>831.40002441406</ele>
        <time>2013-03-07T15:39:55Z</time>
      </trkpt>
      <trkpt lat="45.62605" lon="5.71802">
        <ele>820.59997558594</ele>
        <time>2013-03-07T15:40:19Z</time>
      </trkpt>
      <trkpt lat="45.62608" lon="5.71855">
        <ele>813.69995117188</ele>
        <time>2013-03-07T15:40:52Z</time>
      </trkpt>
      <trkpt lat="45.62621" lon="5.71907">
        <ele>813.5</ele>
        <time>2013-03-07T15:41:18Z</time>
      </trkpt>
      <trkpt lat="45.62651" lon="5.71983">
        <ele>791.90002441406</ele>
        <time>2013-03-07T15:41:51Z</time>
      </trkpt>
      <trkpt lat="45.62696" lon="5.72013">
        <ele>804.69995117188</ele>
        <time>2013-03-07T15:42:17Z</time>
      </trkpt>
      <trkpt lat="45.62737" lon="5.72006">
        <ele>801</ele>
        <time>2013-03-07T15:42:45Z</time>
      </trkpt>
      <trkpt lat="45.62791" lon="5.7202">
        <ele>813</ele>
        <time>2013-03-07T15:43:10Z</time>
      </trkpt>
      <trkpt lat="45.62814" lon="5.72027">
        <ele>798.5</ele>
        <time>2013-03-07T15:43:34Z</time>
      </trkpt>
      <trkpt lat="45.62843" lon="5.72048">
        <ele>789.40002441406</ele>
        <time>2013-03-07T15:43:58Z</time>
      </trkpt>
      <trkpt lat="45.62872" lon="5.72067">
        <ele>782.09997558594</ele>
        <time>2013-03-07T15:44:22Z</time>
      </trkpt>
      <trkpt lat="45.62888" lon="5.72086">
        <ele>780.90002441406</ele>
        <time>2013-03-07T15:44:47Z</time>
      </trkpt>
      <trkpt lat="45.62882" lon="5.72108">
        <ele>780.09997558594</ele>
        <time>2013-03-07T15:45:12Z</time>
      </trkpt>
      <trkpt lat="45.62903" lon="5.72091">
        <ele>775.30004882812</ele>
        <time>2013-03-07T15:45:37Z</time>
      </trkpt>
      <trkpt lat="45.62934" lon="5.72096">
        <ele>773.40002441406</ele>
        <time>2013-03-07T15:46:02Z</time>
      </trkpt>
      <trkpt lat="45.6297" lon="5.72088">
        <ele>758</ele>
        <time>2013-03-07T15:46:28Z</time>
      </trkpt>
      <trkpt lat="45.62995" lon="5.72113">
        <ele>756.59997558594</ele>
        <time>2013-03-07T15:46:51Z</time>
      </trkpt>
      <trkpt lat="45.63013" lon="5.72078">
        <ele>762.90002441406</ele>
        <time>2013-03-07T15:47:13Z</time>
      </trkpt>
      <trkpt lat="45.6304" lon="5.72046">
        <ele>766</ele>
        <time>2013-03-07T15:47:43Z</time>
      </trkpt>
      <trkpt lat="45.63075" lon="5.72032">
        <ele>768.09997558594</ele>
        <time>2013-03-07T15:48:12Z</time>
      </trkpt>
      <trkpt lat="45.63106" lon="5.72025">
        <ele>767.19995117188</ele>
        <time>2013-03-07T15:48:41Z</time>
      </trkpt>
      <trkpt lat="45.63147" lon="5.72004">
        <ele>774.19995117188</ele>
        <time>2013-03-07T15:49:09Z</time>
      </trkpt>
      <trkpt lat="45.63182" lon="5.7197">
        <ele>786.30004882812</ele>
        <time>2013-03-07T15:49:35Z</time>
      </trkpt>
      <trkpt lat="45.63205" lon="5.71936">
        <ele>785.80004882812</ele>
        <time>2013-03-07T15:50:09Z</time>
      </trkpt>
      <trkpt lat="45.63246" lon="5.7191">
        <ele>778.19995117188</ele>
        <time>2013-03-07T15:50:44Z</time>
      </trkpt>
      <trkpt lat="45.63268" lon="5.7187">
        <ele>788.69995117188</ele>
        <time>2013-03-07T15:51:18Z</time>
      </trkpt>
      <trkpt lat="45.63289" lon="5.71819">
        <ele>791.69995117188</ele>
        <time>2013-03-07T15:51:52Z</time>
      </trkpt>
      <trkpt lat="45.63316" lon="5.71755">
        <ele>802.69995117188</ele>
        <time>2013-03-07T15:52:26Z</time>
      </trkpt>
      <trkpt lat="45.63325" lon="5.71699">
        <ele>800.30004882812</ele>
        <time>2013-03-07T15:53:00Z</time>
      </trkpt>
      <trkpt lat="45.63336" lon="5.71595">
        <ele>812.40002441406</ele>
        <time>2013-03-07T15:53:35Z</time>
      </trkpt>
      <trkpt lat="45.63329" lon="5.71553">
        <ele>813</ele>
        <time>2013-03-07T15:54:09Z</time>
      </trkpt>
      <trkpt lat="45.633" lon="5.71372">
        <ele>822.5</ele>
        <time>2013-03-07T15:54:43Z</time>
      </trkpt>
      <trkpt lat="45.63364" lon="5.71331">
        <ele>836.80004882812</ele>
        <time>2013-03-07T15:55:06Z</time>
      </trkpt>
      <trkpt lat="45.63451" lon="5.71274">
        <ele>840.09997558594</ele>
        <time>2013-03-07T15:55:40Z</time>
      </trkpt>
      <trkpt lat="45.63557" lon="5.71219">
        <ele>848.09997558594</ele>
        <time>2013-03-07T15:56:14Z</time>
      </trkpt>
      <trkpt lat="45.63608" lon="5.71241">
        <ele>849.59997558594</ele>
        <time>2013-03-07T15:56:48Z</time>
      </trkpt>
      <trkpt lat="45.63646" lon="5.71261">
        <ele>849.40002441406</ele>
        <time>2013-03-07T15:57:22Z</time>
      </trkpt>
      <trkpt lat="45.63657" lon="5.71317">
        <ele>844.80004882812</ele>
        <time>2013-03-07T15:57:56Z</time>
      </trkpt>
      <trkpt lat="45.63686" lon="5.7131">
        <ele>845.09997558594</ele>
        <time>2013-03-07T15:58:30Z</time>
      </trkpt>
      <trkpt lat="45.63728" lon="5.71346">
        <ele>835.09997558594</ele>
        <time>2013-03-07T15:59:03Z</time>
      </trkpt>
      <trkpt lat="45.63745" lon="5.71391">
        <ele>827.30004882812</ele>
        <time>2013-03-07T15:59:38Z</time>
      </trkpt>
      <trkpt lat="45.6376" lon="5.71451">
        <ele>816.5</ele>
        <time>2013-03-07T16:00:11Z</time>
      </trkpt>
      <trkpt lat="45.63763" lon="5.71511">
        <ele>816.59997558594</ele>
        <time>2013-03-07T16:00:40Z</time>
      </trkpt>
      <trkpt lat="45.63776" lon="5.71563">
        <ele>811.90002441406</ele>
        <time>2013-03-07T16:01:13Z</time>
      </trkpt>
      <trkpt lat="45.63825" lon="5.71596">
        <ele>817.19995117188</ele>
        <time>2013-03-07T16:01:47Z</time>
      </trkpt>
      <trkpt lat="45.63787" lon="5.716">
        <ele>813.90002441406</ele>
        <time>2013-03-07T16:02:09Z</time>
      </trkpt>
      <trkpt lat="45.63745" lon="5.716">
        <ele>810.90002441406</ele>
        <time>2013-03-07T16:02:43Z</time>
      </trkpt>
      <trkpt lat="45.63737" lon="5.71634">
        <ele>802.19995117188</ele>
        <time>2013-03-07T16:03:08Z</time>
      </trkpt>
      <trkpt lat="45.63715" lon="5.71668">
        <ele>797.30004882812</ele>
        <time>2013-03-07T16:03:32Z</time>
      </trkpt>
      <trkpt lat="45.63687" lon="5.71699">
        <ele>813.59997558594</ele>
        <time>2013-03-07T16:03:56Z</time>
      </trkpt>
      <trkpt lat="45.63663" lon="5.71744">
        <ele>804.5</ele>
        <time>2013-03-07T16:04:24Z</time>
      </trkpt>
      <trkpt lat="45.63634" lon="5.71786">
        <ele>797.5</ele>
        <time>2013-03-07T16:04:58Z</time>
      </trkpt>
      <trkpt lat="45.63613" lon="5.71819">
        <ele>788.5</ele>
        <time>2013-03-07T16:05:24Z</time>
      </trkpt>
      <trkpt lat="45.63591" lon="5.71852">
        <ele>782.59997558594</ele>
        <time>2013-03-07T16:05:46Z</time>
      </trkpt>
      <trkpt lat="45.63581" lon="5.71884">
        <ele>784.30004882812</ele>
        <time>2013-03-07T16:06:08Z</time>
      </trkpt>
      <trkpt lat="45.63602" lon="5.719">
        <ele>783</ele>
        <time>2013-03-07T16:06:30Z</time>
      </trkpt>
      <trkpt lat="45.63641" lon="5.71918">
        <ele>786.09997558594</ele>
        <time>2013-03-07T16:06:53Z</time>
      </trkpt>
      <trkpt lat="45.6365" lon="5.71957">
        <ele>775</ele>
        <time>2013-03-07T16:07:15Z</time>
      </trkpt>
      <trkpt lat="45.63679" lon="5.71952">
        <ele>776.40002441406</ele>
        <time>2013-03-07T16:07:41Z</time>
      </trkpt>
      <trkpt lat="45.63712" lon="5.71945">
        <ele>773.69995117188</ele>
        <time>2013-03-07T16:08:04Z</time>
      </trkpt>
      <trkpt lat="45.63743" lon="5.71927">
        <ele>773.59997558594</ele>
        <time>2013-03-07T16:08:34Z</time>
      </trkpt>
      <trkpt lat="45.63772" lon="5.71899">
        <ele>780</ele>
        <time>2013-03-07T16:09:00Z</time>
      </trkpt>
      <trkpt lat="45.63798" lon="5.71915">
        <ele>775.30004882812</ele>
        <time>2013-03-07T16:09:24Z</time>
      </trkpt>
      <trkpt lat="45.63789" lon="5.71949">
        <ele>762.40002441406</ele>
        <time>2013-03-07T16:09:47Z</time>
      </trkpt>
      <trkpt lat="45.63781" lon="5.71984">
        <ele>757.5</ele>
        <time>2013-03-07T16:10:09Z</time>
      </trkpt>
      <trkpt lat="45.63755" lon="5.72024">
        <ele>754.09997558594</ele>
        <time>2013-03-07T16:10:34Z</time>
      </trkpt>
      <trkpt lat="45.63733" lon="5.72048">
        <ele>754.40002441406</ele>
        <time>2013-03-07T16:10:57Z</time>
      </trkpt>
      <trkpt lat="45.63688" lon="5.72075">
        <ele>742.80004882812</ele>
        <time>2013-03-07T16:11:25Z</time>
      </trkpt>
      <trkpt lat="45.63652" lon="5.7211">
        <ele>743.5</ele>
        <time>2013-03-07T16:11:50Z</time>
      </trkpt>
      <trkpt lat="45.63652" lon="5.72136">
        <ele>738.19995117188</ele>
        <time>2013-03-07T16:12:14Z</time>
      </trkpt>
      <trkpt lat="45.63663" lon="5.72162">
        <ele>733.90002441406</ele>
        <time>2013-03-07T16:12:37Z</time>
      </trkpt>
      <trkpt lat="45.63682" lon="5.72174">
        <ele>738.59997558594</ele>
        <time>2013-03-07T16:12:59Z</time>
      </trkpt>
      <trkpt lat="45.63715" lon="5.72193">
        <ele>733.40002441406</ele>
        <time>2013-03-07T16:13:21Z</time>
      </trkpt>
      <trkpt lat="45.6374" lon="5.72165">
        <ele>743.19995117188</ele>
        <time>2013-03-07T16:13:44Z</time>
      </trkpt>
      <trkpt lat="45.6377" lon="5.72194">
        <ele>728.59997558594</ele>
        <time>2013-03-07T16:14:06Z</time>
      </trkpt>
      <trkpt lat="45.63779" lon="5.7222">
        <ele>725.59997558594</ele>
        <time>2013-03-07T16:14:29Z</time>
      </trkpt>
      <trkpt lat="45.63806" lon="5.7225">
        <ele>728.90002441406</ele>
        <time>2013-03-07T16:14:51Z</time>
      </trkpt>
      <trkpt lat="45.63805" lon="5.72282">
        <ele>713.09997558594</ele>
        <time>2013-03-07T16:15:17Z</time>
      </trkpt>
      <trkpt lat="45.63775" lon="5.72315">
        <ele>711.59997558594</ele>
        <time>2013-03-07T16:15:40Z</time>
      </trkpt>
      <trkpt lat="45.63744" lon="5.72332">
        <ele>706</ele>
        <time>2013-03-07T16:16:02Z</time>
      </trkpt>
      <trkpt lat="45.63717" lon="5.72329">
        <ele>699.5</ele>
        <time>2013-03-07T16:16:24Z</time>
      </trkpt>
      <trkpt lat="45.63683" lon="5.72335">
        <ele>698.5</ele>
        <time>2013-03-07T16:16:46Z</time>
      </trkpt>
      <trkpt lat="45.63651" lon="5.72347">
        <ele>696.69995117188</ele>
        <time>2013-03-07T16:17:08Z</time>
      </trkpt>
      <trkpt lat="45.63618" lon="5.7235">
        <ele>703.59997558594</ele>
        <time>2013-03-07T16:17:32Z</time>
      </trkpt>
      <trkpt lat="45.63595" lon="5.72371">
        <ele>694.90002441406</ele>
        <time>2013-03-07T16:17:54Z</time>
      </trkpt>
      <trkpt lat="45.63563" lon="5.72385">
        <ele>690.69995117188</ele>
        <time>2013-03-07T16:18:19Z</time>
      </trkpt>
      <trkpt lat="45.63536" lon="5.72405">
        <ele>685.30004882812</ele>
        <time>2013-03-07T16:18:45Z</time>
      </trkpt>
      <trkpt lat="45.63511" lon="5.72434">
        <ele>685.09997558594</ele>
        <time>2013-03-07T16:19:09Z</time>
      </trkpt>
      <trkpt lat="45.63464" lon="5.72434">
        <ele>675.69995117188</ele>
        <time>2013-03-07T16:19:41Z</time>
      </trkpt>
      <trkpt lat="45.63424" lon="5.72431">
        <ele>673.30004882812</ele>
        <time>2013-03-07T16:20:06Z</time>
      </trkpt>
      <trkpt lat="45.63379" lon="5.72428">
        <ele>685.30004882812</ele>
        <time>2013-03-07T16:20:28Z</time>
      </trkpt>
      <trkpt lat="45.63342" lon="5.72422">
        <ele>689.69995117188</ele>
        <time>2013-03-07T16:20:50Z</time>
      </trkpt>
      <trkpt lat="45.63302" lon="5.72419">
        <ele>683.80004882812</ele>
        <time>2013-03-07T16:21:12Z</time>
      </trkpt>
      <trkpt lat="45.6326" lon="5.72419">
        <ele>683.40002441406</ele>
        <time>2013-03-07T16:21:41Z</time>
      </trkpt>
      <trkpt lat="45.6322" lon="5.72429">
        <ele>682.80004882812</ele>
        <time>2013-03-07T16:22:07Z</time>
      </trkpt>
      <trkpt lat="45.63182" lon="5.72438">
        <ele>686.09997558594</ele>
        <time>2013-03-07T16:22:29Z</time>
      </trkpt>
      <trkpt lat="45.63149" lon="5.72427">
        <ele>692.09997558594</ele>
        <time>2013-03-07T16:22:52Z</time>
      </trkpt>
      <trkpt lat="45.63112" lon="5.72427">
        <ele>693.80004882812</ele>
        <time>2013-03-07T16:23:14Z</time>
      </trkpt>
      <trkpt lat="45.63079" lon="5.72427">
        <ele>696</ele>
        <time>2013-03-07T16:23:36Z</time>
      </trkpt>
      <trkpt lat="45.63052" lon="5.7245">
        <ele>704.09997558594</ele>
        <time>2013-03-07T16:24:01Z</time>
      </trkpt>
      <trkpt lat="45.63027" lon="5.72486">
        <ele>695.09997558594</ele>
        <time>2013-03-07T16:24:24Z</time>
      </trkpt>
      <trkpt lat="45.62973" lon="5.72507">
        <ele>700</ele>
        <time>2013-03-07T16:24:58Z</time>
      </trkpt>
      <trkpt lat="45.62942" lon="5.7251">
        <ele>699.69995117188</ele>
        <time>2013-03-07T16:25:21Z</time>
      </trkpt>
      <trkpt lat="45.62903" lon="5.72531">
        <ele>701.30004882812</ele>
        <time>2013-03-07T16:25:49Z</time>
      </trkpt>
      <trkpt lat="45.62873" lon="5.72549">
        <ele>703.90002441406</ele>
        <time>2013-03-07T16:26:11Z</time>
      </trkpt>
      <trkpt lat="45.62841" lon="5.72567">
        <ele>703.19995117188</ele>
        <time>2013-03-07T16:26:33Z</time>
      </trkpt>
      <trkpt lat="45.62806" lon="5.72581">
        <ele>707.09997558594</ele>
        <time>2013-03-07T16:26:56Z</time>
      </trkpt>
      <trkpt lat="45.62769" lon="5.72591">
        <ele>710</ele>
        <time>2013-03-07T16:27:20Z</time>
      </trkpt>
      <trkpt lat="45.62737" lon="5.72604">
        <ele>711.30004882812</ele>
        <time>2013-03-07T16:27:42Z</time>
      </trkpt>
      <trkpt lat="45.62706" lon="5.72608">
        <ele>713.30004882812</ele>
        <time>2013-03-07T16:28:04Z</time>
      </trkpt>
      <trkpt lat="45.62677" lon="5.72613">
        <ele>712.5</ele>
        <time>2013-03-07T16:28:27Z</time>
      </trkpt>
      <trkpt lat="45.62657" lon="5.72624">
        <ele>713.80004882812</ele>
        <time>2013-03-07T16:28:51Z</time>
      </trkpt>
      <trkpt lat="45.6265" lon="5.72633">
        <ele>718.59997558594</ele>
        <time>2013-03-07T16:29:13Z</time>
      </trkpt>
      <trkpt lat="45.62634" lon="5.72652">
        <ele>715.40002441406</ele>
        <time>2013-03-07T16:29:37Z</time>
      </trkpt>
      <trkpt lat="45.62647" lon="5.72665">
        <ele>716</ele>
        <time>2013-03-07T16:30:57Z</time>
      </trkpt>
    </trkseg>
  </trk>
</gpx>